ADDS METAR Data INFO
IDs: Format: Raw Decoded Include TAF

Data at: 0254 UTC 21 Jan 2018

METAR for:TJBQ (Aquadilla/Hernandez, --, PR)
Text:TJBQ 210050Z COR 09012G16KT 10SM SKC 24/21 A3008 RMK CLOSING
Temperature: 24.0°C ( 75°F)
Dewpoint: 21.0°C ( 70°F) [RH = 83%]
Pressure (altimeter):30.08 inches Hg (1018.7 mb)
Winds:from the E (90 degrees) at 14 MPH (12 knots; 6.2 m/s) gusting to 18 MPH (16 knots; 8.2 m/s)
Visibility:10 or more sm (16+ km)
Ceiling:at least 12,000 feet AGL
Clouds:clear skies